createdAt,value
2023-04-07T00:02:22.507Z,99237.20
2023-04-07T00:04:53.442Z,99231.77
2023-04-07T00:07:24.239Z,99228.58
2023-04-07T00:09:54.966Z,99225.24
2023-04-07T00:12:25.732Z,99227.38
2023-04-07T00:14:56.675Z,99224.70
2023-04-07T00:17:27.460Z,99224.36
2023-04-07T00:19:58.246Z,99221.73
2023-04-07T00:22:29.504Z,99220.34
2023-04-07T00:25:00.173Z,99219.61
2023-04-07T00:27:31.070Z,99223.09
2023-04-07T00:30:01.909Z,99220.73
2023-04-07T00:32:34.123Z,99217.03
2023-04-07T00:35:06.874Z,99218.55
2023-04-07T00:37:37.876Z,99223.03
2023-04-07T00:40:11.408Z,99219.51
2023-04-07T00:42:42.393Z,99220.30
2023-04-07T00:45:15.779Z,99222.20
2023-04-07T00:47:46.603Z,99219.98
2023-04-07T00:50:17.878Z,99221.23
2023-04-07T00:52:49.050Z,99217.48
2023-04-07T00:55:22.649Z,99217.54
2023-04-07T00:57:53.348Z,99219.27
2023-04-07T01:00:24.479Z,99213.57
2023-04-07T01:03:06.630Z,99209.27
2023-04-07T01:05:44.265Z,99205.59
2023-04-07T01:08:25.672Z,99200.25
2023-04-07T01:11:03.761Z,99199.80
2023-04-07T01:13:38.715Z,99203.44
2023-04-07T01:16:14.125Z,99200.14
2023-04-07T01:18:48.965Z,99190.65
2023-04-07T01:21:21.078Z,99188.73
2023-04-07T01:24:01.899Z,99187.89
2023-04-07T01:26:34.851Z,99186.33
2023-04-07T01:29:21.456Z,99180.80
2023-04-07T01:31:55.671Z,99178.64
2023-04-07T01:34:28.559Z,99180.33
2023-04-07T01:37:02.565Z,99181.90
2023-04-07T01:39:34.743Z,99183.91
2023-04-07T01:42:07.795Z,99182.52
2023-04-07T01:44:39.917Z,99188.57
2023-04-07T01:47:11.530Z,99186.27
2023-04-07T01:49:44.706Z,99180.52
2023-04-07T01:52:16.551Z,99180.40
2023-04-07T01:54:47.716Z,99179.23
2023-04-07T01:57:18.408Z,99179.58
2023-04-07T01:59:49.082Z,99183.37
2023-04-07T02:02:19.944Z,99179.80
2023-04-07T02:04:56.717Z,99180.70
2023-04-07T02:07:33.572Z,99178.77
2023-04-07T02:10:07.987Z,99182.02
2023-04-07T02:12:42.217Z,99181.14
2023-04-07T02:15:15.414Z,99177.83
2023-04-07T02:17:51.235Z,99177.55
2023-04-07T02:20:24.085Z,99177.85
2023-04-07T02:22:55.988Z,99178.83
2023-04-07T02:25:29.058Z,99173.34
2023-04-07T02:28:01.964Z,99171.55
2023-04-07T02:30:33.212Z,99170.20
2023-04-07T02:33:04.181Z,99172.23
2023-04-07T02:35:35.139Z,99173.08
2023-04-07T02:38:06.163Z,99170.92
2023-04-07T02:40:37.609Z,99170.27
2023-04-07T02:43:08.320Z,99171.44
2023-04-07T02:45:39.385Z,99171.78
2023-04-07T02:48:10.585Z,99173.20
2023-04-07T02:50:42.134Z,99174.07
2023-04-07T02:53:13.173Z,99176.09
2023-04-07T02:55:44.486Z,99171.90
2023-04-07T02:58:15.536Z,99176.49
2023-04-07T03:00:49.734Z,99171.42
2023-04-07T03:03:21.744Z,99171.10
2023-04-07T03:05:52.707Z,99169.94
2023-04-07T03:08:23.371Z,99168.65
2023-04-07T03:10:54.465Z,99169.05
2023-04-07T03:13:25.616Z,99171.05
2023-04-07T03:15:56.934Z,99167.42
2023-04-07T03:18:27.794Z,99170.48
2023-04-07T03:20:58.447Z,99168.70
2023-04-07T03:23:29.996Z,99170.32
2023-04-07T03:26:01.215Z,99169.09
2023-04-07T03:28:32.080Z,99164.35
2023-04-07T03:31:02.833Z,99161.39
2023-04-07T03:33:36.389Z,99159.21
2023-04-07T03:36:09.432Z,99166.20
2023-04-07T03:38:40.369Z,99168.85
2023-04-07T03:41:11.037Z,99173.78
2023-04-07T03:43:41.767Z,99174.58
2023-04-07T03:46:12.721Z,99168.77
2023-04-07T03:48:43.521Z,99170.86
2023-04-07T03:51:14.610Z,99168.36
2023-04-07T03:53:45.233Z,99158.98
2023-04-07T03:56:16.449Z,99158.19
2023-04-07T03:58:48.927Z,99148.85
2023-04-07T04:01:19.715Z,99154.71
2023-04-07T04:03:52.184Z,99153.32
2023-04-07T04:06:23.692Z,99155.55
2023-04-07T04:08:54.381Z,99152.48
2023-04-07T04:11:25.203Z,99149.30
2023-04-07T04:13:56.283Z,99147.46
2023-04-07T04:16:27.096Z,99153.92
2023-04-07T04:18:58.208Z,99151.74
2023-04-07T04:21:29.148Z,99152.81
2023-04-07T04:24:00.222Z,99152.38
2023-04-07T04:26:31.030Z,99148.43
2023-04-07T04:29:02.997Z,99150.86
2023-04-07T04:31:34.019Z,99150.25
2023-04-07T04:34:04.752Z,99142.99
2023-04-07T04:36:37.892Z,99145.85
2023-04-07T04:39:09.125Z,99146.91
2023-04-07T04:41:39.838Z,99146.15
2023-04-07T04:44:11.113Z,99147.23
2023-04-07T04:46:41.954Z,99145.61
2023-04-07T04:49:12.787Z,99148.98
2023-04-07T04:51:43.667Z,99144.99
2023-04-07T04:54:14.582Z,99148.80
2023-04-07T04:56:45.539Z,99146.70
2023-04-07T04:59:16.400Z,99149.83
2023-04-07T05:01:47.513Z,99147.22
2023-04-07T05:04:18.630Z,99147.95
2023-04-07T05:06:49.721Z,99149.85
2023-04-07T05:09:20.502Z,99150.96
2023-04-07T05:11:51.484Z,99152.60
2023-04-07T05:14:22.360Z,99154.96
2023-04-07T05:16:54.439Z,99150.80
2023-04-07T05:19:25.689Z,99148.29
2023-04-07T05:21:56.606Z,99149.67
2023-04-07T05:24:29.907Z,99154.05
2023-04-07T05:27:02.084Z,99150.64
2023-04-07T05:29:33.230Z,99147.39
2023-04-07T05:32:04.163Z,99150.70
2023-04-07T05:34:34.995Z,99153.55
2023-04-07T05:37:06.053Z,99153.46
2023-04-07T05:39:37.676Z,99152.59
2023-04-07T05:42:08.602Z,99152.92
2023-04-07T05:44:39.421Z,99148.35
2023-04-07T05:47:11.504Z,99143.43
2023-04-07T05:49:46.264Z,99143.23
2023-04-07T05:52:17.540Z,99134.48
2023-04-07T05:54:48.493Z,99140.52
2023-04-07T05:57:19.781Z,99138.39
2023-04-07T05:59:50.834Z,99140.52
2023-04-07T06:02:21.976Z,99139.91
2023-04-07T06:04:53.018Z,99140.30
2023-04-07T06:07:24.061Z,99146.01
2023-04-07T06:09:55.721Z,99152.06
2023-04-07T06:12:26.901Z,99155.83
2023-04-07T06:14:58.542Z,99154.55
2023-04-07T06:17:29.572Z,99156.55
2023-04-07T06:20:00.762Z,99152.42
2023-04-07T06:22:32.133Z,99151.65
2023-04-07T06:25:02.937Z,99149.96
2023-04-07T06:27:34.354Z,99151.58
2023-04-07T06:30:05.830Z,99154.28
2023-04-07T06:32:36.981Z,99151.48
2023-04-07T06:35:09.729Z,99155.62
2023-04-07T06:37:40.660Z,99156.40
2023-04-07T06:40:12.697Z,99159.31
2023-04-07T06:42:43.584Z,99158.47
2023-04-07T06:45:14.713Z,99158.25
2023-04-07T06:47:45.738Z,99155.34
2023-04-07T06:50:20.831Z,99152.88
2023-04-07T06:52:51.797Z,99150.65
2023-04-07T06:55:22.555Z,99149.52
2023-04-07T06:57:53.479Z,99153.23
2023-04-07T07:00:24.405Z,99151.51
2023-04-07T07:02:55.750Z,99152.23
2023-04-07T07:05:27.327Z,99152.41
2023-04-07T07:07:58.507Z,99150.83
2023-04-07T07:10:29.340Z,99154.64
2023-04-07T07:13:00.136Z,99159.08
2023-04-07T07:15:31.127Z,99160.74
2023-04-07T07:18:02.104Z,99161.81
2023-04-07T07:20:33.331Z,99158.91
2023-04-07T07:23:04.391Z,99159.59
2023-04-07T07:25:35.371Z,99161.48
2023-04-07T07:28:06.289Z,99160.54
2023-04-07T07:30:37.423Z,99162.49
2023-04-07T07:33:08.337Z,99168.04
2023-04-07T07:35:40.700Z,99171.84
2023-04-07T07:38:12.339Z,99172.56
2023-04-07T07:40:44.215Z,99173.23
2023-04-07T07:43:15.568Z,99174.73
2023-04-07T07:45:46.817Z,99175.41
2023-04-07T07:48:17.747Z,99175.70
2023-04-07T07:50:49.256Z,99178.66
2023-04-07T07:53:20.725Z,99180.45
2023-04-07T07:55:51.633Z,99176.14
2023-04-07T07:58:22.669Z,99174.73
2023-04-07T08:00:53.526Z,99177.03
2023-04-07T08:03:24.850Z,99172.23
2023-04-07T08:05:56.559Z,99177.27
2023-04-07T08:08:27.547Z,99170.02
2023-04-07T08:10:58.370Z,99170.41
2023-04-07T08:13:29.536Z,99172.60
2023-04-07T08:16:01.649Z,99173.50
2023-04-07T08:18:32.659Z,99179.20
2023-04-07T08:21:05.043Z,99182.10
2023-04-07T08:23:36.066Z,99178.86
2023-04-07T08:26:07.298Z,99178.92
2023-04-07T08:28:38.221Z,99181.55
2023-04-07T08:31:09.245Z,99173.89
2023-04-07T08:33:40.551Z,99175.77
2023-04-07T08:36:12.308Z,99176.89
2023-04-07T08:38:43.361Z,99176.09
2023-04-07T08:41:18.509Z,99175.65
2023-04-07T08:43:51.648Z,99180.33
2023-04-07T08:46:24.579Z,99182.85
2023-04-07T08:48:56.908Z,99182.67
2023-04-07T08:51:31.867Z,99180.77
2023-04-07T08:54:07.991Z,99179.05
2023-04-07T08:56:41.496Z,99178.09
2023-04-07T08:59:13.876Z,99177.09
2023-04-07T09:01:45.037Z,99176.20
2023-04-07T09:04:16.435Z,99172.55
2023-04-07T09:06:47.412Z,99172.11
2023-04-07T09:09:18.415Z,99172.23
2023-04-07T09:11:51.500Z,99167.14
2023-04-07T09:14:24.103Z,99169.59
2023-04-07T09:16:55.957Z,99166.19
2023-04-07T09:19:28.545Z,99165.95
2023-04-07T09:21:59.762Z,99166.97
2023-04-07T09:24:32.842Z,99165.75
2023-04-07T09:27:17.083Z,99168.14
2023-04-07T09:29:49.237Z,99164.98
2023-04-07T09:32:39.230Z,99163.48
2023-04-07T09:35:11.319Z,99162.38
2023-04-07T09:37:42.839Z,99159.17
2023-04-07T09:40:27.195Z,99161.45
2023-04-07T09:42:59.168Z,99161.57
2023-04-07T09:45:35.228Z,99160.44
2023-04-07T09:48:20.335Z,99161.73
2023-04-07T09:50:52.212Z,99164.92
2023-04-07T09:53:43.380Z,99164.53
2023-04-07T09:56:16.324Z,99162.87
2023-04-07T09:58:51.572Z,99164.13
2023-04-07T10:01:23.976Z,99163.05
2023-04-07T10:03:56.445Z,99165.38
2023-04-07T10:06:28.810Z,99162.05
2023-04-07T10:08:59.798Z,99165.36
2023-04-07T10:11:32.387Z,99162.16
2023-04-07T10:14:03.196Z,99163.02
2023-04-07T10:16:34.599Z,99157.33
2023-04-07T10:19:07.288Z,99161.93
2023-04-07T10:21:42.345Z,99162.58
2023-04-07T10:24:34.791Z,99161.16
2023-04-07T10:27:09.444Z,99155.84
2023-04-07T10:29:43.886Z,99159.08
2023-04-07T10:32:14.916Z,99153.81
2023-04-07T10:35:02.478Z,99152.73
2023-04-07T10:37:34.504Z,99153.48
2023-04-07T10:40:33.779Z,99153.38
2023-04-07T10:43:05.455Z,99155.66
2023-04-07T10:46:02.421Z,99156.98
2023-04-07T10:48:34.463Z,99152.86
2023-04-07T10:51:21.250Z,99152.67
2023-04-07T10:54:29.093Z,99156.11
2023-04-07T10:57:14.196Z,99158.56
2023-04-07T10:59:59.262Z,99158.58
2023-04-07T11:02:39.565Z,99159.16
2023-04-07T11:05:21.184Z,99164.11
2023-04-07T11:08:02.665Z,99164.93
2023-04-07T11:10:33.497Z,99166.06
2023-04-07T11:13:11.276Z,99165.41
2023-04-07T11:15:42.366Z,99168.89
2023-04-07T11:18:18.329Z,99165.05
2023-04-07T11:20:55.090Z,99162.91
2023-04-07T11:23:27.503Z,99166.08
2023-04-07T11:26:03.421Z,99168.36
2023-04-07T11:28:34.860Z,99168.54
2023-04-07T11:31:06.285Z,99170.98
2023-04-07T11:33:39.139Z,99167.70
2023-04-07T11:36:10.568Z,99168.87
2023-04-07T11:38:44.349Z,99167.99
2023-04-07T11:41:17.094Z,99173.11
2023-04-07T11:43:48.288Z,99169.84
2023-04-07T11:46:20.734Z,99167.40
2023-04-07T11:48:51.871Z,99164.24
2023-04-07T11:51:25.115Z,99167.84
2023-04-07T11:53:59.781Z,99169.33
2023-04-07T11:56:31.252Z,99167.23
2023-04-07T11:59:03.136Z,99167.10
2023-04-07T12:01:43.866Z,99164.89
2023-04-07T12:04:17.471Z,99163.57
2023-04-07T12:06:49.809Z,99161.38
2023-04-07T12:09:32.593Z,99162.91
2023-04-07T12:12:04.062Z,99164.35
2023-04-07T12:14:35.210Z,99161.69
2023-04-07T12:17:07.662Z,99159.52
2023-04-07T12:19:39.798Z,99162.41
2023-04-07T12:22:11.268Z,99159.25
2023-04-07T12:24:42.186Z,99160.11
2023-04-07T12:27:12.948Z,99161.95
2023-04-07T12:29:44.503Z,99164.52
2023-04-07T12:32:17.105Z,99162.89
2023-04-07T12:34:50.838Z,99163.98
2023-04-07T12:37:21.633Z,99162.52
2023-04-07T12:39:52.582Z,99160.10
2023-04-07T12:42:23.521Z,99161.27
2023-04-07T12:44:54.469Z,99164.73
2023-04-07T12:47:25.248Z,99163.70
2023-04-07T12:49:56.466Z,99164.02
2023-04-07T12:52:27.491Z,99162.83
2023-04-07T12:54:58.672Z,99158.92
2023-04-07T12:57:29.970Z,99161.89
2023-04-07T13:00:01.086Z,99159.89
2023-04-07T13:02:32.108Z,99161.33
2023-04-07T13:05:03.565Z,99159.42
2023-04-07T13:07:35.160Z,99159.34
2023-04-07T13:10:08.426Z,99158.92
2023-04-07T13:12:39.999Z,99162.10
2023-04-07T13:15:11.377Z,99163.70
2023-04-07T13:17:42.533Z,99158.14
2023-04-07T13:20:19.362Z,99159.98
2023-04-07T13:23:01.338Z,99160.92
2023-04-07T13:25:34.482Z,99159.66
2023-04-07T13:28:05.921Z,99157.91
2023-04-07T13:30:37.069Z,99158.45
2023-04-07T13:33:08.321Z,99157.25
2023-04-07T13:35:39.524Z,99157.88
2023-04-07T13:38:10.686Z,99160.27
2023-04-07T13:40:41.914Z,99156.42
2023-04-07T13:43:12.841Z,99157.14
2023-04-07T13:45:43.941Z,99155.88
2023-04-07T13:48:14.913Z,99153.02
2023-04-07T13:50:46.404Z,99155.39
2023-04-07T13:53:19.125Z,99150.27
2023-04-07T13:55:50.642Z,99151.37
2023-04-07T13:58:21.503Z,99148.38
2023-04-07T14:00:52.544Z,99150.73
2023-04-07T14:03:24.250Z,99145.25
2023-04-07T14:05:55.494Z,99141.04
2023-04-07T14:08:26.270Z,99144.16
2023-04-07T14:10:57.122Z,99140.94
2023-04-07T14:13:27.846Z,99142.06
2023-04-07T14:15:58.880Z,99139.23
2023-04-07T14:18:29.756Z,99140.29
2023-04-07T14:21:03.259Z,99135.83
2023-04-07T14:23:50.897Z,99134.95
2023-04-07T14:26:22.494Z,99134.90
2023-04-07T14:28:53.275Z,99128.54
2023-04-07T14:31:24.212Z,99127.02
2023-04-07T14:33:55.540Z,99123.77
2023-04-07T14:36:26.314Z,99113.35
2023-04-07T14:38:57.246Z,99118.30
2023-04-07T14:41:28.730Z,99117.70
2023-04-07T14:43:59.638Z,99114.23
2023-04-07T14:46:30.637Z,99111.98
2023-04-07T14:49:01.603Z,99113.63
2023-04-07T14:51:32.738Z,99111.67
2023-04-07T14:54:03.610Z,99111.95
2023-04-07T14:56:34.497Z,99116.15
2023-04-07T14:59:05.313Z,99114.98
2023-04-07T15:01:36.189Z,99117.05
2023-04-07T15:04:07.593Z,99119.89
2023-04-07T15:06:38.628Z,99116.57
2023-04-07T15:09:09.579Z,99113.77
2023-04-07T15:11:40.412Z,99117.78
2023-04-07T15:14:11.135Z,99117.08
2023-04-07T15:16:42.172Z,99118.35
2023-04-07T15:19:13.184Z,99116.80
2023-04-07T15:21:44.142Z,99117.44
2023-04-07T15:24:16.403Z,99119.20
2023-04-07T15:26:47.710Z,99123.31
2023-04-07T15:29:20.949Z,99122.99
2023-04-07T15:31:51.943Z,99125.66
2023-04-07T15:34:22.935Z,99126.20
2023-04-07T15:36:54.082Z,99124.13
2023-04-07T15:39:25.090Z,99119.70
2023-04-07T15:41:56.945Z,99119.78
2023-04-07T15:44:28.509Z,99122.27
2023-04-07T15:46:59.731Z,99122.59
2023-04-07T15:49:30.717Z,99121.66
2023-04-07T15:52:02.457Z,99123.52
2023-04-07T15:54:33.880Z,99123.02
2023-04-07T15:57:05.083Z,99123.52
2023-04-07T15:59:36.426Z,99122.33
2023-04-07T16:02:07.417Z,99119.27
2023-04-07T16:04:38.513Z,99115.33
2023-04-07T16:07:09.684Z,99115.73
2023-04-07T16:09:40.593Z,99110.70
2023-04-07T16:12:11.891Z,99109.55
2023-04-07T16:14:42.948Z,99111.59
2023-04-07T16:17:14.253Z,99112.91
2023-04-07T16:19:45.485Z,99109.42
2023-04-07T16:22:16.746Z,99107.02
2023-04-07T16:24:47.939Z,99105.90
2023-04-07T16:27:19.032Z,99104.02
2023-04-07T16:29:50.380Z,99103.20
2023-04-07T16:32:21.519Z,99104.09
2023-04-07T16:34:53.117Z,99105.48
2023-04-07T16:37:24.729Z,99106.77
2023-04-07T16:39:57.744Z,99106.60
2023-04-07T16:42:30.469Z,99107.16
2023-04-07T16:45:02.265Z,99112.50
2023-04-07T16:47:33.964Z,99117.45
2023-04-07T16:50:06.010Z,99118.54
2023-04-07T16:52:37.060Z,99120.52
2023-04-07T16:55:09.124Z,99124.59
2023-04-07T16:57:40.544Z,99126.59
2023-04-07T17:00:14.153Z,99125.09
2023-04-07T17:02:45.646Z,99127.99
2023-04-07T17:05:18.297Z,99126.48
2023-04-07T17:07:50.208Z,99129.84
2023-04-07T17:10:21.860Z,99131.45
2023-04-07T17:12:56.634Z,99135.48
2023-04-07T17:15:27.958Z,99132.92
2023-04-07T17:17:59.006Z,99134.32
2023-04-07T17:20:30.719Z,99134.30
2023-04-07T17:23:01.784Z,99137.89
2023-04-07T17:25:32.913Z,99138.11
2023-04-07T17:28:04.256Z,99143.70
2023-04-07T17:30:36.650Z,99146.55
2023-04-07T17:33:08.478Z,99147.94
2023-04-07T17:35:39.565Z,99148.26
2023-04-07T17:38:10.694Z,99144.30
2023-04-07T17:40:41.752Z,99149.76
2023-04-07T17:43:13.208Z,99152.92
2023-04-07T17:45:44.152Z,99154.36
2023-04-07T17:48:15.151Z,99157.52
2023-04-07T17:50:46.240Z,99158.53
2023-04-07T17:53:17.417Z,99156.77
2023-04-07T17:55:48.371Z,99157.72
2023-04-07T17:58:21.255Z,99159.41
2023-04-07T18:00:52.392Z,99166.98
2023-04-07T18:03:23.536Z,99166.41
2023-04-07T18:05:54.984Z,99165.27
2023-04-07T18:08:26.503Z,99168.41
2023-04-07T18:10:57.681Z,99173.80
2023-04-07T18:13:29.310Z,99176.21
2023-04-07T18:16:00.801Z,99171.23
2023-04-07T18:18:32.335Z,99175.36
2023-04-07T18:21:04.631Z,99177.09
2023-04-07T18:23:35.633Z,99183.44
2023-04-07T18:26:07.668Z,99183.88
2023-04-07T18:28:38.778Z,99184.60
2023-04-07T18:31:11.149Z,99187.04
2023-04-07T18:33:42.104Z,99185.19
2023-04-07T18:36:13.935Z,99188.38
2023-04-07T18:38:45.241Z,99190.09
2023-04-07T18:41:16.464Z,99186.75
2023-04-07T18:43:48.886Z,99191.51
2023-04-07T18:46:20.142Z,99190.65
2023-04-07T18:48:51.209Z,99187.42
2023-04-07T18:51:22.445Z,99188.09
2023-04-07T18:53:53.892Z,99189.24
2023-04-07T18:56:27.587Z,99188.94
2023-04-07T18:58:58.619Z,99189.81
2023-04-07T19:01:29.824Z,99192.41
2023-04-07T19:04:01.494Z,99190.57
2023-04-07T19:06:32.566Z,99190.48
2023-04-07T19:09:04.057Z,99189.73
2023-04-07T19:11:35.685Z,99189.73
2023-04-07T19:14:06.571Z,99188.67
2023-04-07T19:16:39.374Z,99188.14
2023-04-07T19:19:11.453Z,99188.64
2023-04-07T19:21:42.951Z,99189.55
2023-04-07T19:24:14.109Z,99191.09
2023-04-07T19:26:45.389Z,99193.27
2023-04-07T19:29:16.791Z,99192.06
2023-04-07T19:31:50.975Z,99196.25
2023-04-07T19:34:21.939Z,99193.21
2023-04-07T19:36:53.100Z,99194.33
2023-04-07T19:39:23.984Z,99194.13
2023-04-07T19:41:56.148Z,99195.15
2023-04-07T19:44:29.755Z,99192.11
2023-04-07T19:47:00.829Z,99192.80
2023-04-07T19:49:31.767Z,99196.65
2023-04-07T19:52:02.811Z,99193.77
2023-04-07T19:54:33.752Z,99196.65
2023-04-07T19:57:04.800Z,99194.31
2023-04-07T19:59:35.942Z,99202.48
2023-04-07T20:02:07.119Z,99196.23
2023-04-07T20:04:38.327Z,99197.34
2023-04-07T20:07:09.259Z,99195.60
2023-04-07T20:09:40.005Z,99198.50
2023-04-07T20:12:10.963Z,99196.55
2023-04-07T20:14:41.919Z,99196.98
2023-04-07T20:17:12.971Z,99195.09
2023-04-07T20:19:44.720Z,99197.87
2023-04-07T20:22:15.745Z,99194.23
2023-04-07T20:24:47.075Z,99195.73
2023-04-07T20:27:18.476Z,99196.49
2023-04-07T20:29:49.434Z,99194.55
2023-04-07T20:32:20.669Z,99196.71
2023-04-07T20:34:52.373Z,99193.10
2023-04-07T20:37:26.055Z,99192.98
2023-04-07T20:39:57.072Z,99190.31
2023-04-07T20:42:28.066Z,99191.37
2023-04-07T20:45:03.743Z,99195.71
2023-04-07T20:47:36.838Z,99194.70
2023-04-07T20:50:09.673Z,99198.00
2023-04-07T20:52:43.528Z,99196.63
2023-04-07T20:55:13.067Z,99200.54
2023-04-07T20:57:44.266Z,99197.89
2023-04-07T21:00:18.419Z,99198.14
2023-04-07T21:02:49.825Z,99197.38
2023-04-07T21:05:21.048Z,99197.89
2023-04-07T21:07:51.941Z,99197.20
2023-04-07T21:10:22.918Z,99194.47
2023-04-07T21:12:53.640Z,99197.42
2023-04-07T21:15:24.518Z,99198.80
2023-04-07T21:17:55.552Z,99201.81
2023-04-07T21:20:26.473Z,99200.95
2023-04-07T21:22:57.332Z,99201.45
2023-04-07T21:25:28.272Z,99200.94
2023-04-07T21:27:59.336Z,99197.99
2023-04-07T21:30:30.150Z,99201.45
2023-04-07T21:33:01.278Z,99194.91
2023-04-07T21:35:32.330Z,99196.26
2023-04-07T21:38:03.400Z,99198.14
2023-04-07T21:40:34.542Z,99197.11
2023-04-07T21:43:05.275Z,99198.70
2023-04-07T21:45:36.255Z,99202.26
2023-04-07T21:48:08.011Z,99200.52
2023-04-07T21:50:39.164Z,99202.95
2023-04-07T21:53:10.506Z,99203.23
2023-04-07T21:55:41.467Z,99199.93
2023-04-07T21:58:12.365Z,99201.86
2023-04-07T22:00:43.190Z,99202.29
2023-04-07T22:03:13.998Z,99200.23
2023-04-07T22:05:44.935Z,99200.42
2023-04-07T22:08:15.728Z,99201.82
2023-04-07T22:10:46.704Z,99202.82
2023-04-07T22:13:17.482Z,99202.16
2023-04-07T22:15:48.251Z,99205.16
2023-04-07T22:18:21.492Z,99201.92
2023-04-07T22:20:52.896Z,99203.30
2023-04-07T22:23:23.737Z,99202.55
2023-04-07T22:25:55.604Z,99200.67
2023-04-07T22:28:26.336Z,99202.50
2023-04-07T22:30:58.255Z,99198.80
2023-04-07T22:33:29.103Z,99202.23
2023-04-07T22:35:59.950Z,99201.59
2023-04-07T22:38:30.713Z,99197.01
2023-04-07T22:41:01.776Z,99200.99
2023-04-07T22:43:32.499Z,99200.69
2023-04-07T22:46:03.241Z,99201.17
2023-04-07T22:48:33.979Z,99203.97
2023-04-07T22:51:04.853Z,99197.70
2023-04-07T22:53:35.863Z,99197.90
2023-04-07T22:56:07.321Z,99197.54
2023-04-07T22:58:38.071Z,99196.95
2023-04-07T23:01:09.151Z,99199.42
2023-04-07T23:03:39.908Z,99199.52
2023-04-07T23:06:10.610Z,99204.18
2023-04-07T23:08:41.352Z,99199.25
2023-04-07T23:11:12.713Z,99196.77
2023-04-07T23:13:43.405Z,99199.78
2023-04-07T23:16:16.039Z,99196.83
2023-04-07T23:18:47.173Z,99200.52
2023-04-07T23:21:18.070Z,99202.80
2023-04-07T23:23:48.780Z,99202.06
2023-04-07T23:26:19.448Z,99205.77
2023-04-07T23:28:50.150Z,99201.52
2023-04-07T23:31:21.356Z,99197.58
2023-04-07T23:33:52.179Z,99191.38
2023-04-07T23:36:23.015Z,99188.40
2023-04-07T23:38:53.753Z,99184.52
2023-04-07T23:41:24.530Z,99182.55
2023-04-07T23:43:55.846Z,99188.50
2023-04-07T23:46:26.726Z,99188.48
2023-04-07T23:48:57.423Z,99190.50
2023-04-07T23:51:28.247Z,99192.05
2023-04-07T23:53:59.422Z,99192.81
2023-04-07T23:56:30.132Z,99196.53
2023-04-07T23:59:00.758Z,99194.72
